sensor_id;sensor_type;location;lat;lon;timestamp;temperature;humidity
11454;DHT22;5783;55.174;61.310;2022-12-22T00:00:11;12.00;30.80
11454;DHT22;5783;55.174;61.310;2022-12-22T00:03:00;12.10;35.60
11454;DHT22;5783;55.174;61.310;2022-12-22T00:05:48;12.10;35.70
11454;DHT22;5783;55.174;61.310;2022-12-22T00:08:37;12.10;35.80
11454;DHT22;5783;55.174;61.310;2022-12-22T00:11:25;12.20;35.70
11454;DHT22;5783;55.174;61.310;2022-12-22T00:14:14;12.10;35.70
11454;DHT22;5783;55.174;61.310;2022-12-22T00:17:04;12.10;36.00
11454;DHT22;5783;55.174;61.310;2022-12-22T00:19:53;12.10;36.20
11454;DHT22;5783;55.174;61.310;2022-12-22T00:22:41;12.10;36.20
11454;DHT22;5783;55.174;61.310;2022-12-22T00:25:29;12.00;36.20
11454;DHT22;5783;55.174;61.310;2022-12-22T00:28:18;11.90;36.30
11454;DHT22;5783;55.174;61.310;2022-12-22T00:31:06;11.80;36.30
11454;DHT22;5783;55.174;61.310;2022-12-22T00:33:55;11.80;37.90
11454;DHT22;5783;55.174;61.310;2022-12-22T00:36:44;11.90;37.50
11454;DHT22;5783;55.174;61.310;2022-12-22T00:39:32;11.90;37.50
11454;DHT22;5783;55.174;61.310;2022-12-22T00:42:21;11.90;37.80
11454;DHT22;5783;55.174;61.310;2022-12-22T00:45:09;11.90;37.60
11454;DHT22;5783;55.174;61.310;2022-12-22T00:47:58;12.00;37.60
11454;DHT22;5783;55.174;61.310;2022-12-22T00:50:47;12.10;37.10
11454;DHT22;5783;55.174;61.310;2022-12-22T00:53:35;12.10;36.00
11454;DHT22;5783;55.174;61.310;2022-12-22T00:56:24;12.10;34.90
11454;DHT22;5783;55.174;61.310;2022-12-22T00:59:12;12.10;33.50
11454;DHT22;5783;55.174;61.310;2022-12-22T01:02:01;12.10;34.00
11454;DHT22;5783;55.174;61.310;2022-12-22T01:07:58;12.10;34.20
11454;DHT22;5783;55.174;61.310;2022-12-22T01:10:47;12.10;33.80
11454;DHT22;5783;55.174;61.310;2022-12-22T01:16:25;12.00;33.50
11454;DHT22;5783;55.174;61.310;2022-12-22T01:19:14;12.00;33.90
11454;DHT22;5783;55.174;61.310;2022-12-22T01:22:06;12.00;34.20
11454;DHT22;5783;55.174;61.310;2022-12-22T01:24:52;12.00;34.20
11454;DHT22;5783;55.174;61.310;2022-12-22T01:27:41;12.00;33.50
11454;DHT22;5783;55.174;61.310;2022-12-22T01:30:29;12.00;34.00
11454;DHT22;5783;55.174;61.310;2022-12-22T01:33:18;11.90;33.70
11454;DHT22;5783;55.174;61.310;2022-12-22T01:36:06;12.00;33.80
11454;DHT22;5783;55.174;61.310;2022-12-22T01:38:55;12.00;33.80
11454;DHT22;5783;55.174;61.310;2022-12-22T01:41:44;11.90;33.60
11454;DHT22;5783;55.174;61.310;2022-12-22T01:44:33;12.10;33.50
11454;DHT22;5783;55.174;61.310;2022-12-22T01:47:41;12.30;35.30
11454;DHT22;5783;55.174;61.310;2022-12-22T01:50:33;12.40;35.70
11454;DHT22;5783;55.174;61.310;2022-12-22T01:53:24;12.30;35.50
11454;DHT22;5783;55.174;61.310;2022-12-22T01:56:12;12.20;35.30
11454;DHT22;5783;55.174;61.310;2022-12-22T01:59:03;12.00;35.40
11454;DHT22;5783;55.174;61.310;2022-12-22T02:01:51;12.00;35.40
11454;DHT22;5783;55.174;61.310;2022-12-22T02:04:43;12.00;35.50
11454;DHT22;5783;55.174;61.310;2022-12-22T02:23:45;11.90;35.90
11454;DHT22;5783;55.174;61.310;2022-12-22T02:26:50;12.00;36.00
11454;DHT22;5783;55.174;61.310;2022-12-22T02:33:08;11.90;36.50
11454;DHT22;5783;55.174;61.310;2022-12-22T02:36:18;11.80;38.70
11454;DHT22;5783;55.174;61.310;2022-12-22T02:42:36;11.80;37.90
11454;DHT22;5783;55.174;61.310;2022-12-22T02:48:19;11.90;37.80
11454;DHT22;5783;55.174;61.310;2022-12-22T02:51:10;12.10;37.10
11454;DHT22;5783;55.174;61.310;2022-12-22T02:54:00;12.20;36.40
11454;DHT22;5783;55.174;61.310;2022-12-22T02:56:49;12.20;36.10
11454;DHT22;5783;55.174;61.310;2022-12-22T02:59:38;12.10;35.60
11454;DHT22;5783;55.174;61.310;2022-12-22T03:02:26;11.90;35.80
11454;DHT22;5783;55.174;61.310;2022-12-22T03:05:15;11.70;38.40
11454;DHT22;5783;55.174;61.310;2022-12-22T03:08:03;11.60;40.50
11454;DHT22;5783;55.174;61.310;2022-12-22T03:10:52;11.60;41.00
11454;DHT22;5783;55.174;61.310;2022-12-22T03:13:40;11.60;40.90
11454;DHT22;5783;55.174;61.310;2022-12-22T03:16:29;11.70;40.80
11454;DHT22;5783;55.174;61.310;2022-12-22T03:19:17;11.70;40.80
11454;DHT22;5783;55.174;61.310;2022-12-22T03:22:06;11.70;40.80
11454;DHT22;5783;55.174;61.310;2022-12-22T03:24:54;11.70;40.90
11454;DHT22;5783;55.174;61.310;2022-12-22T03:27:43;11.70;40.90
11454;DHT22;5783;55.174;61.310;2022-12-22T03:30:12;11.80;40.90
11454;DHT22;5783;55.174;61.310;2022-12-22T03:32:41;11.70;41.00
11454;DHT22;5783;55.174;61.310;2022-12-22T03:35:10;11.60;41.50
11454;DHT22;5783;55.174;61.310;2022-12-22T03:37:39;11.70;41.40
11454;DHT22;5783;55.174;61.310;2022-12-22T03:40:08;11.70;40.90
11454;DHT22;5783;55.174;61.310;2022-12-22T03:42:38;11.70;41.10
11454;DHT22;5783;55.174;61.310;2022-12-22T03:45:26;11.70;40.80
11454;DHT22;5783;55.174;61.310;2022-12-22T03:48:15;11.60;41.70
11454;DHT22;5783;55.174;61.310;2022-12-22T03:50:44;11.60;41.60
11454;DHT22;5783;55.174;61.310;2022-12-22T03:53:13;11.50;41.90
11454;DHT22;5783;55.174;61.310;2022-12-22T03:55:42;11.60;42.00
11454;DHT22;5783;55.174;61.310;2022-12-22T03:58:11;11.60;41.90
11454;DHT22;5783;55.174;61.310;2022-12-22T04:00:40;11.60;41.70
11454;DHT22;5783;55.174;61.310;2022-12-22T04:03:09;11.70;41.50
11454;DHT22;5783;55.174;61.310;2022-12-22T04:05:39;11.70;41.40
11454;DHT22;5783;55.174;61.310;2022-12-22T04:08:08;11.70;41.20
11454;DHT22;5783;55.174;61.310;2022-12-22T04:10:38;11.70;41.50
11454;DHT22;5783;55.174;61.310;2022-12-22T04:13:26;11.80;41.60
11454;DHT22;5783;55.174;61.310;2022-12-22T04:15:55;11.70;41.40
11454;DHT22;5783;55.174;61.310;2022-12-22T04:18:24;11.70;41.50
11454;DHT22;5783;55.174;61.310;2022-12-22T04:20:53;11.70;41.30
11454;DHT22;5783;55.174;61.310;2022-12-22T04:23:23;11.70;41.00
11454;DHT22;5783;55.174;61.310;2022-12-22T04:25:52;11.60;41.20
11454;DHT22;5783;55.174;61.310;2022-12-22T04:28:21;11.60;40.80
11454;DHT22;5783;55.174;61.310;2022-12-22T04:30:50;11.70;40.90
11454;DHT22;5783;55.174;61.310;2022-12-22T04:33:20;11.80;40.70
11454;DHT22;5783;55.174;61.310;2022-12-22T04:35:49;12.10;40.40
11454;DHT22;5783;55.174;61.310;2022-12-22T04:38:18;12.40;35.50
11454;DHT22;5783;55.174;61.310;2022-12-22T04:40:47;12.70;40.90
11454;DHT22;5783;55.174;61.310;2022-12-22T04:43:16;13.10;39.40
11454;DHT22;5783;55.174;61.310;2022-12-22T04:45:45;13.20;40.70
11454;DHT22;5783;55.174;61.310;2022-12-22T04:48:14;13.50;43.50
11454;DHT22;5783;55.174;61.310;2022-12-22T04:50:44;13.60;43.60
11454;DHT22;5783;55.174;61.310;2022-12-22T04:53:13;13.70;36.40
11454;DHT22;5783;55.174;61.310;2022-12-22T04:56:02;13.80;33.40
11454;DHT22;5783;55.174;61.310;2022-12-22T04:58:32;13.80;37.90
11454;DHT22;5783;55.174;61.310;2022-12-22T05:01:22;13.90;37.70
11454;DHT22;5783;55.174;61.310;2022-12-22T05:03:51;13.40;33.20
11454;DHT22;5783;55.174;61.310;2022-12-22T05:06:20;13.20;32.60
11454;DHT22;5783;55.174;61.310;2022-12-22T05:08:49;13.20;31.00
11454;DHT22;5783;55.174;61.310;2022-12-22T05:11:18;13.20;30.60
11454;DHT22;5783;55.174;61.310;2022-12-22T05:13:47;13.10;22.70
11454;DHT22;5783;55.174;61.310;2022-12-22T05:16:17;12.90;31.60
11454;DHT22;5783;55.174;61.310;2022-12-22T05:18:46;12.30;27.50
11454;DHT22;5783;55.174;61.310;2022-12-22T05:21:17;12.10;28.70
11454;DHT22;5783;55.174;61.310;2022-12-22T05:23:47;12.00;26.80
11454;DHT22;5783;55.174;61.310;2022-12-22T05:26:17;12.00;26.50
11454;DHT22;5783;55.174;61.310;2022-12-22T05:28:47;11.70;28.90
11454;DHT22;5783;55.174;61.310;2022-12-22T05:31:19;11.70;29.60
11454;DHT22;5783;55.174;61.310;2022-12-22T05:33:49;11.90;29.00
11454;DHT22;5783;55.174;61.310;2022-12-22T05:36:18;12.20;28.40
11454;DHT22;5783;55.174;61.310;2022-12-22T05:38:47;12.40;26.50
11454;DHT22;5783;55.174;61.310;2022-12-22T05:41:16;12.40;24.30
11454;DHT22;5783;55.174;61.310;2022-12-22T05:43:45;12.50;23.40
11454;DHT22;5783;55.174;61.310;2022-12-22T05:46:15;12.60;24.70
11454;DHT22;5783;55.174;61.310;2022-12-22T05:48:44;12.80;27.60
11454;DHT22;5783;55.174;61.310;2022-12-22T05:51:13;12.90;26.80
11454;DHT22;5783;55.174;61.310;2022-12-22T05:53:42;13.10;27.60
11454;DHT22;5783;55.174;61.310;2022-12-22T05:56:11;13.20;28.20
11454;DHT22;5783;55.174;61.310;2022-12-22T05:58:40;13.30;28.60
11454;DHT22;5783;55.174;61.310;2022-12-22T06:01:09;13.30;29.60
11454;DHT22;5783;55.174;61.310;2022-12-22T06:03:39;13.00;28.20
11454;DHT22;5783;55.174;61.310;2022-12-22T06:06:08;12.70;26.60
11454;DHT22;5783;55.174;61.310;2022-12-22T06:08:37;12.40;24.00
11454;DHT22;5783;55.174;61.310;2022-12-22T06:11:06;12.10;22.90
11454;DHT22;5783;55.174;61.310;2022-12-22T06:13:35;12.10;24.20
11454;DHT22;5783;55.174;61.310;2022-12-22T06:16:05;12.10;24.00
11454;DHT22;5783;55.174;61.310;2022-12-22T06:18:34;12.10;24.10
11454;DHT22;5783;55.174;61.310;2022-12-22T06:21:04;12.20;24.30
11454;DHT22;5783;55.174;61.310;2022-12-22T06:23:34;12.30;23.70
11454;DHT22;5783;55.174;61.310;2022-12-22T06:26:03;12.50;23.10
11454;DHT22;5783;55.174;61.310;2022-12-22T06:28:33;12.80;25.40
11454;DHT22;5783;55.174;61.310;2022-12-22T06:31:02;12.90;31.60
11454;DHT22;5783;55.174;61.310;2022-12-22T06:33:31;13.10;27.90
11454;DHT22;5783;55.174;61.310;2022-12-22T06:38:50;13.40;30.20
11454;DHT22;5783;55.174;61.310;2022-12-22T06:41:19;13.50;33.10
11454;DHT22;5783;55.174;61.310;2022-12-22T06:44:08;13.60;33.40
11454;DHT22;5783;55.174;61.310;2022-12-22T06:46:37;13.70;32.60
11454;DHT22;5783;55.174;61.310;2022-12-22T06:49:06;13.60;31.50
11454;DHT22;5783;55.174;61.310;2022-12-22T06:51:35;13.70;31.10
11454;DHT22;5783;55.174;61.310;2022-12-22T06:54:04;13.80;31.00
11454;DHT22;5783;55.174;61.310;2022-12-22T06:56:33;13.80;30.50
11454;DHT22;5783;55.174;61.310;2022-12-22T06:59:04;13.90;30.50
11454;DHT22;5783;55.174;61.310;2022-12-22T07:01:33;13.90;30.60
11454;DHT22;5783;55.174;61.310;2022-12-22T07:04:02;14.00;31.70
11454;DHT22;5783;55.174;61.310;2022-12-22T07:06:32;14.00;32.10
11454;DHT22;5783;55.174;61.310;2022-12-22T07:09:01;14.00;32.50
11454;DHT22;5783;55.174;61.310;2022-12-22T07:11:30;14.00;32.80
11454;DHT22;5783;55.174;61.310;2022-12-22T07:13:59;14.10;32.40
11454;DHT22;5783;55.174;61.310;2022-12-22T07:16:28;14.00;32.40
11454;DHT22;5783;55.174;61.310;2022-12-22T07:18:57;13.90;32.70
11454;DHT22;5783;55.174;61.310;2022-12-22T07:21:27;14.00;32.60
11454;DHT22;5783;55.174;61.310;2022-12-22T07:23:56;14.10;35.30
11454;DHT22;5783;55.174;61.310;2022-12-22T07:26:25;14.20;35.80
11454;DHT22;5783;55.174;61.310;2022-12-22T07:28:54;14.20;35.50
11454;DHT22;5783;55.174;61.310;2022-12-22T07:31:23;14.10;35.50
11454;DHT22;5783;55.174;61.310;2022-12-22T07:33:52;14.10;37.00
11454;DHT22;5783;55.174;61.310;2022-12-22T07:36:21;14.10;37.00
11454;DHT22;5783;55.174;61.310;2022-12-22T07:38:51;14.20;37.10
11454;DHT22;5783;55.174;61.310;2022-12-22T07:41:20;14.10;38.10
11454;DHT22;5783;55.174;61.310;2022-12-22T07:44:08;14.10;37.30
11454;DHT22;5783;55.174;61.310;2022-12-22T07:46:38;14.10;37.00
11454;DHT22;5783;55.174;61.310;2022-12-22T07:49:09;14.10;36.60
11454;DHT22;5783;55.174;61.310;2022-12-22T07:51:58;14.20;36.60
11454;DHT22;5783;55.174;61.310;2022-12-22T07:54:28;14.30;39.70
11454;DHT22;5783;55.174;61.310;2022-12-22T07:56:57;14.30;42.10
11454;DHT22;5783;55.174;61.310;2022-12-22T07:59:26;14.40;44.00
11454;DHT22;5783;55.174;61.310;2022-12-22T08:01:55;14.40;47.30
11454;DHT22;5783;55.174;61.310;2022-12-22T08:04:24;14.50;47.60
11454;DHT22;5783;55.174;61.310;2022-12-22T08:06:53;14.50;46.40
11454;DHT22;5783;55.174;61.310;2022-12-22T08:09:22;14.50;46.30
11454;DHT22;5783;55.174;61.310;2022-12-22T08:11:52;14.50;45.80
11454;DHT22;5783;55.174;61.310;2022-12-22T08:14:21;14.60;46.80
11454;DHT22;5783;55.174;61.310;2022-12-22T08:16:50;14.50;47.30
11454;DHT22;5783;55.174;61.310;2022-12-22T08:19:19;14.60;50.20
11454;DHT22;5783;55.174;61.310;2022-12-22T08:21:48;14.70;51.50
11454;DHT22;5783;55.174;61.310;2022-12-22T08:24:17;14.70;52.60
11454;DHT22;5783;55.174;61.310;2022-12-22T08:26:49;14.70;52.40
11454;DHT22;5783;55.174;61.310;2022-12-22T08:29:39;14.80;50.90
11454;DHT22;5783;55.174;61.310;2022-12-22T08:32:09;14.80;52.70
11454;DHT22;5783;55.174;61.310;2022-12-22T08:34:39;14.80;52.40
11454;DHT22;5783;55.174;61.310;2022-12-22T08:37:11;14.90;53.70
11454;DHT22;5783;55.174;61.310;2022-12-22T08:39:42;14.90;54.20
11454;DHT22;5783;55.174;61.310;2022-12-22T08:42:13;15.00;53.40
11454;DHT22;5783;55.174;61.310;2022-12-22T08:44:44;15.00;54.00
11454;DHT22;5783;55.174;61.310;2022-12-22T08:47:15;15.00;54.50
11454;DHT22;5783;55.174;61.310;2022-12-22T08:49:44;15.00;55.80
11454;DHT22;5783;55.174;61.310;2022-12-22T08:52:13;15.00;54.90
11454;DHT22;5783;55.174;61.310;2022-12-22T08:54:43;14.90;54.40
11454;DHT22;5783;55.174;61.310;2022-12-22T08:57:12;14.90;53.90
11454;DHT22;5783;55.174;61.310;2022-12-22T08:59:41;14.90;53.20
11454;DHT22;5783;55.174;61.310;2022-12-22T09:02:12;15.00;52.70
11454;DHT22;5783;55.174;61.310;2022-12-22T09:04:41;15.00;52.60
11454;DHT22;5783;55.174;61.310;2022-12-22T09:07:10;15.00;53.00
11454;DHT22;5783;55.174;61.310;2022-12-22T09:09:39;14.90;53.60
11454;DHT22;5783;55.174;61.310;2022-12-22T09:12:09;14.90;53.80
11454;DHT22;5783;55.174;61.310;2022-12-22T09:14:38;14.90;53.80
11454;DHT22;5783;55.174;61.310;2022-12-22T09:17:07;14.90;54.30
11454;DHT22;5783;55.174;61.310;2022-12-22T09:19:36;14.90;54.50
11454;DHT22;5783;55.174;61.310;2022-12-22T09:22:05;14.90;54.60
11454;DHT22;5783;55.174;61.310;2022-12-22T09:24:35;14.90;53.10
11454;DHT22;5783;55.174;61.310;2022-12-22T09:27:04;15.00;52.80
11454;DHT22;5783;55.174;61.310;2022-12-22T09:29:35;15.00;53.20
11454;DHT22;5783;55.174;61.310;2022-12-22T09:32:05;15.00;55.60
11454;DHT22;5783;55.174;61.310;2022-12-22T09:34:34;15.10;57.80
11454;DHT22;5783;55.174;61.310;2022-12-22T09:37:03;15.10;27.30
11454;DHT22;5783;55.174;61.310;2022-12-22T09:39:32;15.10;22.70
11454;DHT22;5783;55.174;61.310;2022-12-22T09:42:01;15.20;22.20
11454;DHT22;5783;55.174;61.310;2022-12-22T09:44:33;15.20;22.20
11454;DHT22;5783;55.174;61.310;2022-12-22T09:47:09;15.20;22.20
11454;DHT22;5783;55.174;61.310;2022-12-22T09:49:35;15.20;22.20
11454;DHT22;5783;55.174;61.310;2022-12-22T09:52:05;15.20;22.20
11454;DHT22;5783;55.174;61.310;2022-12-22T09:54:34;15.20;22.40
11454;DHT22;5783;55.174;61.310;2022-12-22T09:57:07;15.30;22.30
11454;DHT22;5783;55.174;61.310;2022-12-22T09:59:36;15.40;22.10
11454;DHT22;5783;55.174;61.310;2022-12-22T10:08:40;15.40;21.90
11454;DHT22;5783;55.174;61.310;2022-12-22T10:11:29;15.40;21.80
11454;DHT22;5783;55.174;61.310;2022-12-22T10:13:58;15.40;22.00
11454;DHT22;5783;55.174;61.310;2022-12-22T10:16:28;15.40;22.10
11454;DHT22;5783;55.174;61.310;2022-12-22T10:21:47;15.50;21.90
11454;DHT22;5783;55.174;61.310;2022-12-22T10:24:36;15.60;22.00
11454;DHT22;5783;55.174;61.310;2022-12-22T10:27:05;15.70;22.10
11454;DHT22;5783;55.174;61.310;2022-12-22T10:29:35;15.70;23.50
11454;DHT22;5783;55.174;61.310;2022-12-22T10:35:14;15.50;25.70
11454;DHT22;5783;55.174;61.310;2022-12-22T10:37:43;15.50;26.10
11454;DHT22;5783;55.174;61.310;2022-12-22T10:40:32;15.60;26.40
11454;DHT22;5783;55.174;61.310;2022-12-22T10:43:02;15.50;26.70
11454;DHT22;5783;55.174;61.310;2022-12-22T10:45:32;15.50;27.10
11454;DHT22;5783;55.174;61.310;2022-12-22T10:48:01;15.50;27.10
11454;DHT22;5783;55.174;61.310;2022-12-22T10:50:32;15.50;27.00
11454;DHT22;5783;55.174;61.310;2022-12-22T10:53:01;15.50;26.70
11454;DHT22;5783;55.174;61.310;2022-12-22T10:55:31;15.40;26.50
11454;DHT22;5783;55.174;61.310;2022-12-22T10:58:21;15.30;25.80
11454;DHT22;5783;55.174;61.310;2022-12-22T11:03:41;15.20;25.00
11454;DHT22;5783;55.174;61.310;2022-12-22T11:06:11;15.30;25.20
11454;DHT22;5783;55.174;61.310;2022-12-22T11:08:41;15.30;24.90
11454;DHT22;5783;55.174;61.310;2022-12-22T11:37:53;14.70;34.10
11454;DHT22;5783;55.174;61.310;2022-12-22T11:46:44;14.40;39.80
11454;DHT22;5783;55.174;61.310;2022-12-22T11:52:26;14.50;39.80
11454;DHT22;5783;55.174;61.310;2022-12-22T12:35:52;14.10;45.50
11454;DHT22;5783;55.174;61.310;2022-12-22T12:44:02;14.10;45.10
11454;DHT22;5783;55.174;61.310;2022-12-22T13:01:08;14.00;41.90
11454;DHT22;5783;55.174;61.310;2022-12-22T13:03:37;14.20;41.60
11454;DHT22;5783;55.174;61.310;2022-12-22T13:06:09;14.30;41.20
11454;DHT22;5783;55.174;61.310;2022-12-22T13:11:47;14.60;32.80
11454;DHT22;5783;55.174;61.310;2022-12-22T13:20:34;14.60;33.10
11454;DHT22;5783;55.174;61.310;2022-12-22T13:37:52;14.40;33.80
11454;DHT22;5783;55.174;61.310;2022-12-22T13:40:25;14.30;33.50
11454;DHT22;5783;55.174;61.310;2022-12-22T13:43:16;14.30;32.90
11454;DHT22;5783;55.174;61.310;2022-12-22T13:59:57;14.10;32.60
11454;DHT22;5783;55.174;61.310;2022-12-22T14:02:30;14.00;34.20
11454;DHT22;5783;55.174;61.310;2022-12-22T14:05:18;14.00;35.40
11454;DHT22;5783;55.174;61.310;2022-12-22T14:08:08;13.90;46.40
11454;DHT22;5783;55.174;61.310;2022-12-22T14:10:41;13.80;46.00
11454;DHT22;5783;55.174;61.310;2022-12-22T14:13:30;14.10;45.70
11454;DHT22;5783;55.174;61.310;2022-12-22T14:16:01;14.30;45.10
11454;DHT22;5783;55.174;61.310;2022-12-22T14:18:32;14.30;44.90
11454;DHT22;5783;55.174;61.310;2022-12-22T14:21:03;14.40;43.10
11454;DHT22;5783;55.174;61.310;2022-12-22T14:23:52;14.40;34.00
11454;DHT22;5783;55.174;61.310;2022-12-22T14:26:24;14.50;31.60
11454;DHT22;5783;55.174;61.310;2022-12-22T14:28:55;14.50;31.10
11454;DHT22;5783;55.174;61.310;2022-12-22T14:31:24;14.50;30.80
11454;DHT22;5783;55.174;61.310;2022-12-22T14:33:55;14.60;31.20
11454;DHT22;5783;55.174;61.310;2022-12-22T14:36:34;14.60;33.20
11454;DHT22;5783;55.174;61.310;2022-12-22T14:38:59;14.40;32.70
11454;DHT22;5783;55.174;61.310;2022-12-22T14:44:22;13.90;31.80
11454;DHT22;5783;55.174;61.310;2022-12-22T14:52:54;13.70;46.40
11454;DHT22;5783;55.174;61.310;2022-12-22T15:00:48;13.50;46.70
11454;DHT22;5783;55.174;61.310;2022-12-22T15:03:38;13.30;44.50
11454;DHT22;5783;55.174;61.310;2022-12-22T15:14:25;12.90;47.50
11454;DHT22;5783;55.174;61.310;2022-12-22T15:16:57;12.90;47.70
11454;DHT22;5783;55.174;61.310;2022-12-22T15:19:29;12.90;47.20
11454;DHT22;5783;55.174;61.310;2022-12-22T15:21:59;12.90;46.50
11454;DHT22;5783;55.174;61.310;2022-12-22T15:24:28;13.10;46.70
11454;DHT22;5783;55.174;61.310;2022-12-22T15:26:57;13.30;44.50
11454;DHT22;5783;55.174;61.310;2022-12-22T15:29:26;13.40;42.50
11454;DHT22;5783;55.174;61.310;2022-12-22T15:31:56;13.50;41.80
11454;DHT22;5783;55.174;61.310;2022-12-22T15:34:29;13.50;46.90
11454;DHT22;5783;55.174;61.310;2022-12-22T15:36:58;13.70;46.80
11454;DHT22;5783;55.174;61.310;2022-12-22T15:39:27;13.70;43.80
11454;DHT22;5783;55.174;61.310;2022-12-22T15:41:56;13.70;39.50
11454;DHT22;5783;55.174;61.310;2022-12-22T15:44:26;13.60;39.50
11454;DHT22;5783;55.174;61.310;2022-12-22T15:46:57;13.50;39.40
11454;DHT22;5783;55.174;61.310;2022-12-22T15:49:47;13.50;39.60
11454;DHT22;5783;55.174;61.310;2022-12-22T15:54:49;13.40;39.70
11454;DHT22;5783;55.174;61.310;2022-12-22T15:57:21;13.30;39.90
11454;DHT22;5783;55.174;61.310;2022-12-22T16:00:12;13.30;40.00
11454;DHT22;5783;55.174;61.310;2022-12-22T16:05:55;13.30;39.90
11454;DHT22;5783;55.174;61.310;2022-12-22T16:08:29;13.30;40.00
11454;DHT22;5783;55.174;61.310;2022-12-22T16:11:00;13.30;39.70
11454;DHT22;5783;55.174;61.310;2022-12-22T16:13:49;13.40;39.60
11454;DHT22;5783;55.174;61.310;2022-12-22T16:16:38;13.30;39.70
11454;DHT22;5783;55.174;61.310;2022-12-22T16:19:27;13.20;40.10
11454;DHT22;5783;55.174;61.310;2022-12-22T16:21:56;13.10;40.20
11454;DHT22;5783;55.174;61.310;2022-12-22T16:24:45;13.20;40.30
11454;DHT22;5783;55.174;61.310;2022-12-22T16:27:15;13.30;40.10
11454;DHT22;5783;55.174;61.310;2022-12-22T16:29:47;13.40;39.90
11454;DHT22;5783;55.174;61.310;2022-12-22T16:35:28;13.50;40.10
11454;DHT22;5783;55.174;61.310;2022-12-22T16:37:59;13.50;40.10
11454;DHT22;5783;55.174;61.310;2022-12-22T16:40:30;13.40;40.20
11454;DHT22;5783;55.174;61.310;2022-12-22T16:43:02;13.30;40.60
11454;DHT22;5783;55.174;61.310;2022-12-22T16:45:34;13.20;40.90
11454;DHT22;5783;55.174;61.310;2022-12-22T16:48:58;13.10;39.80
11454;DHT22;5783;55.174;61.310;2022-12-22T16:50:54;13.10;39.10
11454;DHT22;5783;55.174;61.310;2022-12-22T16:53:23;13.10;39.80
11454;DHT22;5783;55.174;61.310;2022-12-22T16:55:58;13.20;39.40
11454;DHT22;5783;55.174;61.310;2022-12-22T16:58:24;13.30;39.20
11454;DHT22;5783;55.174;61.310;2022-12-22T17:00:54;13.40;38.90
11454;DHT22;5783;55.174;61.310;2022-12-22T17:03:24;13.40;38.90
11454;DHT22;5783;55.174;61.310;2022-12-22T17:06:14;13.40;38.50
11454;DHT22;5783;55.174;61.310;2022-12-22T17:08:45;13.30;38.60
11454;DHT22;5783;55.174;61.310;2022-12-22T17:11:34;13.20;38.80
11454;DHT22;5783;55.174;61.310;2022-12-22T17:16:54;13.10;39.00
11454;DHT22;5783;55.174;61.310;2022-12-22T17:19:23;13.30;38.80
11454;DHT22;5783;55.174;61.310;2022-12-22T17:21:52;13.50;38.20
11454;DHT22;5783;55.174;61.310;2022-12-22T17:24:22;13.70;39.00
11454;DHT22;5783;55.174;61.310;2022-12-22T17:26:52;13.80;39.90
11454;DHT22;5783;55.174;61.310;2022-12-22T17:29:22;13.70;40.60
11454;DHT22;5783;55.174;61.310;2022-12-22T17:31:51;13.80;41.00
11454;DHT22;5783;55.174;61.310;2022-12-22T17:34:22;13.90;45.30
11454;DHT22;5783;55.174;61.310;2022-12-22T17:36:51;13.90;46.40
11454;DHT22;5783;55.174;61.310;2022-12-22T17:39:22;13.70;47.70
11454;DHT22;5783;55.174;61.310;2022-12-22T17:41:52;13.60;44.70
11454;DHT22;5783;55.174;61.310;2022-12-22T17:44:23;13.60;44.20
11454;DHT22;5783;55.174;61.310;2022-12-22T17:46:53;13.60;44.50
11454;DHT22;5783;55.174;61.310;2022-12-22T17:49:22;13.60;44.00
11454;DHT22;5783;55.174;61.310;2022-12-22T17:51:51;13.50;44.60
11454;DHT22;5783;55.174;61.310;2022-12-22T17:57:13;13.60;44.90
11454;DHT22;5783;55.174;61.310;2022-12-22T17:59:42;13.50;44.60
11454;DHT22;5783;55.174;61.310;2022-12-22T18:02:31;13.30;42.70
11454;DHT22;5783;55.174;61.310;2022-12-22T18:05:02;13.30;40.60
11454;DHT22;5783;55.174;61.310;2022-12-22T18:07:31;13.30;38.20
11454;DHT22;5783;55.174;61.310;2022-12-22T18:10:01;13.30;37.50
11454;DHT22;5783;55.174;61.310;2022-12-22T18:12:32;13.40;37.30
11454;DHT22;5783;55.174;61.310;2022-12-22T18:15:02;13.40;37.00
11454;DHT22;5783;55.174;61.310;2022-12-22T18:17:31;13.30;37.00
11454;DHT22;5783;55.174;61.310;2022-12-22T18:20:00;13.30;38.10
11454;DHT22;5783;55.174;61.310;2022-12-22T18:22:32;13.20;36.60
11454;DHT22;5783;55.174;61.310;2022-12-22T18:25:01;13.20;34.00
11454;DHT22;5783;55.174;61.310;2022-12-22T18:27:30;13.20;33.80
11454;DHT22;5783;55.174;61.310;2022-12-22T18:30:00;13.20;33.60
11454;DHT22;5783;55.174;61.310;2022-12-22T18:32:29;13.20;33.90
11454;DHT22;5783;55.174;61.310;2022-12-22T18:34:58;13.30;33.40
11454;DHT22;5783;55.174;61.310;2022-12-22T18:37:27;13.40;33.70
11454;DHT22;5783;55.174;61.310;2022-12-22T18:39:56;13.40;33.60
11454;DHT22;5783;55.174;61.310;2022-12-22T18:42:25;13.40;33.90
11454;DHT22;5783;55.174;61.310;2022-12-22T18:44:54;13.40;33.70
11454;DHT22;5783;55.174;61.310;2022-12-22T18:47:24;13.50;33.90
11454;DHT22;5783;55.174;61.310;2022-12-22T18:49:53;13.50;33.80
11454;DHT22;5783;55.174;61.310;2022-12-22T18:52:23;13.60;34.10
11454;DHT22;5783;55.174;61.310;2022-12-22T18:54:52;13.60;34.80
11454;DHT22;5783;55.174;61.310;2022-12-22T18:57:21;13.60;35.70
11454;DHT22;5783;55.174;61.310;2022-12-22T18:59:50;13.60;37.50
11454;DHT22;5783;55.174;61.310;2022-12-22T19:02:22;13.60;37.60
11454;DHT22;5783;55.174;61.310;2022-12-22T19:04:53;13.60;37.50
11454;DHT22;5783;55.174;61.310;2022-12-22T19:07:23;13.70;37.40
11454;DHT22;5783;55.174;61.310;2022-12-22T19:09:53;13.60;37.40
11454;DHT22;5783;55.174;61.310;2022-12-22T19:12:22;13.60;37.30
11454;DHT22;5783;55.174;61.310;2022-12-22T19:14:54;13.60;37.50
11454;DHT22;5783;55.174;61.310;2022-12-22T19:17:25;13.60;37.60
11454;DHT22;5783;55.174;61.310;2022-12-22T19:19:55;13.70;37.40
11454;DHT22;5783;55.174;61.310;2022-12-22T19:22:25;13.70;38.10
11454;DHT22;5783;55.174;61.310;2022-12-22T19:24:54;13.60;37.90
11454;DHT22;5783;55.174;61.310;2022-12-22T19:27:25;13.60;38.00
11454;DHT22;5783;55.174;61.310;2022-12-22T19:29:57;13.60;38.30
11454;DHT22;5783;55.174;61.310;2022-12-22T19:32:29;13.60;38.20
11454;DHT22;5783;55.174;61.310;2022-12-22T19:34:58;13.50;38.00
11454;DHT22;5783;55.174;61.310;2022-12-22T19:37:27;13.50;38.20
11454;DHT22;5783;55.174;61.310;2022-12-22T19:39:57;13.50;38.20
11454;DHT22;5783;55.174;61.310;2022-12-22T19:42:26;13.50;38.20
11454;DHT22;5783;55.174;61.310;2022-12-22T19:44:55;13.60;38.30
11454;DHT22;5783;55.174;61.310;2022-12-22T19:47:24;13.60;38.30
11454;DHT22;5783;55.174;61.310;2022-12-22T19:49:55;13.70;38.80
11454;DHT22;5783;55.174;61.310;2022-12-22T19:52:24;13.70;38.70
11454;DHT22;5783;55.174;61.310;2022-12-22T19:54:54;13.70;39.30
11454;DHT22;5783;55.174;61.310;2022-12-22T19:57:23;13.70;40.00